Time;durP1;ratioP1;P1;durP2;ratioP2;P2;SDS_P1;SDS_P2;PMS_P1;PMS_P2;Temp;Humidity;BMP_temperature;BMP_pressure;BME280_temperature;BME280_humidity;BME280_pressure;Samples;Min_cycle;Max_cycle;Signal;HPM_P1;HPM_P2
2021/03/12 00:00:39;;;;;;;2.60;0.70;;;9.20;99.90;;;;;;5030659;28;20224;-59
2021/03/12 00:03:06;;;;;;;1.23;0.53;;;9.20;99.90;;;;;;5030873;28;20207;-59
2021/03/12 00:05:32;;;;;;;2.40;0.93;;;9.20;99.90;;;;;;5030725;28;20206;-59
2021/03/12 00:07:58;;;;;;;1.80;0.60;;;9.00;99.90;;;;;;5030836;28;20209;-58
2021/03/12 00:10:27;;;;;;;2.73;1.10;;;8.90;99.90;;;;;;5031060;28;20213;-58
2021/03/12 00:12:54;;;;;;;1.40;0.93;;;9.10;99.90;;;;;;5032772;28;20210;-59
2021/03/12 00:15:22;;;;;;;0.70;0.70;;;9.10;99.90;;;;;;5034199;28;20214;-58
2021/03/12 00:17:50;;;;;;;2.23;0.83;;;9.10;99.90;;;;;;5034307;28;20690;-58
2021/03/12 00:20:18;;;;;;;2.43;1.30;;;9.10;99.90;;;;;;5034487;28;20670;-59
2021/03/12 00:22:45;;;;;;;2.93;0.83;;;9.20;99.90;;;;;;5034295;28;20252;-58
2021/03/12 00:25:13;;;;;;;2.70;0.80;;;9.10;99.90;;;;;;5034045;28;20210;-59
2021/03/12 00:27:40;;;;;;;2.00;0.70;;;9.10;99.90;;;;;;5034299;28;20213;-60
2021/03/12 00:30:09;;;;;;;2.80;0.77;;;9.20;99.90;;;;;;5034082;28;20237;-58
2021/03/12 00:32:37;;;;;;;2.50;1.10;;;9.20;99.90;;;;;;5034044;28;20198;-58
2021/03/12 00:35:05;;;;;;;3.57;1.10;;;9.30;99.90;;;;;;5033834;28;20203;-58
2021/03/12 00:37:31;;;;;;;5.90;1.30;;;9.50;99.90;;;;;;5033998;28;20206;-59
2021/03/12 00:39:57;;;;;;;2.47;1.00;;;9.50;99.90;;;;;;5033523;28;20226;-58
2021/03/12 00:42:23;;;;;;;3.33;1.10;;;9.60;99.90;;;;;;5033909;28;20237;-58
2021/03/12 00:44:49;;;;;;;1.83;0.90;;;9.50;99.90;;;;;;5033949;28;20213;-58
2021/03/12 00:47:16;;;;;;;1.93;0.70;;;9.60;99.90;;;;;;5033624;28;20217;-60
2021/03/12 00:49:43;;;;;;;2.07;0.80;;;9.60;99.90;;;;;;5033327;28;20223;-58
2021/03/12 00:52:09;;;;;;;3.03;1.07;;;9.60;99.90;;;;;;5033568;28;20203;-59
2021/03/12 00:54:35;;;;;;;4.03;1.20;;;9.50;99.90;;;;;;5033367;28;20213;-59
2021/03/12 00:57:02;;;;;;;5.07;1.30;;;9.50;99.90;;;;;;5033599;28;20237;-58
2021/03/12 00:59:28;;;;;;;2.43;0.60;;;9.30;99.90;;;;;;5033368;28;20237;-59
2021/03/12 01:01:54;;;;;;;3.50;1.00;;;9.20;99.90;;;;;;5033543;28;20591;-59
2021/03/12 01:04:20;;;;;;;2.93;1.43;;;9.30;99.90;;;;;;5033249;28;20210;-59
2021/03/12 01:06:47;;;;;;;1.27;0.70;;;9.20;99.90;;;;;;5033357;28;20202;-58
2021/03/12 01:09:13;;;;;;;3.03;1.10;;;9.20;99.90;;;;;;5032997;28;20790;-57
2021/03/12 01:11:40;;;;;;;1.83;0.80;;;9.20;99.90;;;;;;5033316;28;20594;-59
2021/03/12 01:14:06;;;;;;;3.27;0.80;;;9.20;99.90;;;;;;5033022;28;20706;-58
2021/03/12 01:16:32;;;;;;;3.90;0.90;;;9.20;99.60;;;;;;5033105;28;20677;-58
2021/03/12 01:18:58;;;;;;;4.27;0.90;;;9.20;99.70;;;;;;5033097;28;20226;-59
2021/03/12 01:21:25;;;;;;;3.13;0.90;;;9.10;99.20;;;;;;5033023;28;20252;-59
2021/03/12 01:23:52;;;;;;;4.00;0.73;;;9.10;99.00;;;;;;5033138;28;20218;-58
2021/03/12 01:26:18;;;;;;;1.33;0.70;;;9.30;98.80;;;;;;5033651;28;20233;-57
2021/03/12 01:28:44;;;;;;;1.67;0.70;;;9.30;99.90;;;;;;5033199;28;20226;-58
2021/03/12 01:31:10;;;;;;;2.63;0.70;;;9.30;99.90;;;;;;5033594;28;20206;-59
2021/03/12 01:33:37;;;;;;;2.87;0.90;;;9.20;99.90;;;;;;5032782;28;20213;-58
2021/03/12 01:36:03;;;;;;;2.60;0.80;;;9.10;99.90;;;;;;5032672;28;20211;-59
2021/03/12 01:38:29;;;;;;;1.70;0.70;;;8.90;99.90;;;;;;5032925;28;20226;-59
2021/03/12 01:40:57;;;;;;;3.50;0.83;;;8.80;99.90;;;;;;5033001;28;20225;-58
2021/03/12 01:43:23;;;;;;;1.83;0.70;;;8.50;99.90;;;;;;5032702;28;20262;-59
2021/03/12 01:45:51;;;;;;;1.50;0.60;;;8.40;99.90;;;;;;5032646;28;20207;-59
2021/03/12 01:48:19;;;;;;;1.57;0.70;;;8.20;99.90;;;;;;5032354;28;20717;-58
2021/03/12 01:50:51;;;;;;;2.70;0.70;;;8.20;99.90;;;;;;5032464;28;20226;-58
2021/03/12 01:53:21;;;;;;;1.83;0.70;;;8.00;99.90;;;;;;5032714;28;20264;-59
2021/03/12 01:55:47;;;;;;;2.53;0.97;;;7.90;99.90;;;;;;5032564;28;20381;-58
2021/03/12 01:58:14;;;;;;;1.67;0.70;;;7.90;99.90;;;;;;5032236;28;20245;-59
2021/03/12 02:00:41;;;;;;;1.63;0.70;;;7.80;99.90;;;;;;5032344;28;20210;-59
2021/03/12 02:03:10;;;;;;;1.10;0.90;;;7.70;99.90;;;;;;5032637;28;20257;-58
2021/03/12 02:05:37;;;;;;;4.77;1.00;;;7.70;99.90;;;;;;5032197;28;20202;-59
2021/03/12 02:08:05;;;;;;;2.73;1.00;;;7.80;99.90;;;;;;5031902;28;20621;-58
2021/03/12 02:10:32;;;;;;;3.00;1.00;;;7.90;99.90;;;;;;5032457;28;20356;-58
2021/03/12 02:13:04;;;;;;;3.37;1.03;;;7.80;99.90;;;;;;5032183;28;20214;-59
2021/03/12 02:15:36;;;;;;;4.03;1.57;;;7.70;99.90;;;;;;5031889;28;20206;-59
2021/03/12 02:18:06;;;;;;;7.63;1.10;;;7.60;99.90;;;;;;5031763;28;20268;-57
2021/03/12 02:20:45;;;;;;;4.47;1.07;;;7.60;99.90;;;;;;5032466;28;20206;-57
2021/03/12 02:23:19;;;;;;;4.20;0.90;;;7.40;99.90;;;;;;5032111;28;20220;-58
2021/03/12 02:25:52;;;;;;;5.17;1.10;;;7.30;99.90;;;;;;5031750;28;20693;-59
2021/03/12 02:28:21;;;;;;;3.93;1.30;;;7.20;99.90;;;;;;5031608;28;20619;-58
2021/03/12 02:30:48;;;;;;;4.10;1.13;;;7.20;99.90;;;;;;5031989;28;20217;-60
2021/03/12 02:33:15;;;;;;;2.87;0.93;;;7.20;99.90;;;;;;5031926;28;20255;-59
2021/03/12 02:35:42;;;;;;;3.97;1.10;;;7.20;99.90;;;;;;5030965;28;20202;-59
2021/03/12 02:38:09;;;;;;;3.83;1.37;;;7.30;99.90;;;;;;5031498;28;20701;-58
2021/03/12 02:40:36;;;;;;;4.37;1.33;;;7.40;99.90;;;;;;5031723;28;20697;-58
2021/03/12 02:43:03;;;;;;;4.20;1.30;;;7.30;99.90;;;;;;5031525;28;20736;-58
2021/03/12 02:45:30;;;;;;;4.33;1.00;;;7.40;99.90;;;;;;5031605;28;20206;-57
2021/03/12 02:47:57;;;;;;;2.80;0.80;;;7.40;99.90;;;;;;5031579;28;20210;-59
2021/03/12 02:50:25;;;;;;;5.30;1.10;;;7.40;99.90;;;;;;5031527;28;20202;-58
2021/03/12 02:52:52;;;;;;;2.83;1.10;;;7.50;99.90;;;;;;5031379;28;20202;-59
2021/03/12 02:55:20;;;;;;;2.70;1.00;;;7.50;99.90;;;;;;5031166;28;20213;-58
2021/03/12 02:57:47;;;;;;;3.37;1.03;;;7.40;99.90;;;;;;5031446;28;20260;-58
2021/03/12 03:00:14;;;;;;;3.00;1.00;;;7.30;99.90;;;;;;5055935;22;20272;-60
2021/03/12 03:02:42;;;;;;;3.90;0.87;;;7.40;99.90;;;;;;5031663;28;20226;-60
2021/03/12 03:05:09;;;;;;;4.63;1.17;;;7.40;99.90;;;;;;5031576;28;20645;-60
2021/03/12 03:07:36;;;;;;;3.57;1.10;;;7.40;99.90;;;;;;5031409;28;20341;-61
2021/03/12 03:10:09;;;;;;;4.13;1.73;;;7.40;99.90;;;;;;5031237;28;20229;-62
2021/03/12 03:12:36;;;;;;;4.20;1.30;;;7.50;99.90;;;;;;5031449;28;20202;-60
2021/03/12 03:15:06;;;;;;;4.30;1.13;;;7.50;99.90;;;;;;5031479;28;20256;-62
2021/03/12 03:17:36;;;;;;;4.97;1.10;;;7.80;99.90;;;;;;5031926;28;20221;-61
2021/03/12 03:20:06;;;;;;;2.20;0.80;;;7.90;99.90;;;;;;5031351;28;20233;-61
2021/03/12 03:22:33;;;;;;;4.30;1.20;;;8.10;99.90;;;;;;5030928;28;20237;-61
2021/03/12 03:25:00;;;;;;;8.77;1.17;;;8.10;99.90;;;;;;5031283;28;20206;-61
2021/03/12 03:27:26;;;;;;;5.43;1.10;;;8.30;99.90;;;;;;5031151;28;20210;-60
2021/03/12 03:29:52;;;;;;;2.30;0.60;;;8.20;99.90;;;;;;5030969;28;20502;-61
2021/03/12 03:32:19;;;;;;;4.03;0.80;;;8.40;99.90;;;;;;5031218;28;20277;-60
2021/03/12 03:34:45;;;;;;;3.47;1.23;;;8.50;99.40;;;;;;5031215;28;20209;-60
2021/03/12 03:37:13;;;;;;;3.50;1.17;;;8.60;98.70;;;;;;5030867;28;20686;-62
2021/03/12 03:39:39;;;;;;;4.33;0.90;;;8.60;98.50;;;;;;5031059;28;20233;-61
2021/03/12 03:42:07;;;;;;;2.20;0.63;;;8.70;98.30;;;;;;5030849;28;20598;-61
2021/03/12 03:44:36;;;;;;;2.80;0.97;;;8.70;98.00;;;;;;5030640;28;20212;-60
2021/03/12 03:47:04;;;;;;;4.63;1.30;;;8.70;98.00;;;;;;5034246;28;20255;-61
2021/03/12 03:49:35;;;;;;;2.87;0.90;;;8.80;97.60;;;;;;5035146;28;20625;-60
2021/03/12 03:52:02;;;;;;;1.97;0.80;;;8.70;97.20;;;;;;5035912;28;20256;-61
2021/03/12 03:54:30;;;;;;;3.50;1.07;;;8.80;97.10;;;;;;5035476;28;20213;-61
2021/03/12 03:56:57;;;;;;;6.87;1.07;;;8.80;96.80;;;;;;5035184;28;20218;-61
2021/03/12 03:59:25;;;;;;;3.30;1.00;;;8.80;96.60;;;;;;5034562;28;20325;-60
2021/03/12 04:01:51;;;;;;;3.37;1.00;;;8.80;96.10;;;;;;5035169;28;20234;-60
2021/03/12 04:04:18;;;;;;;4.50;1.00;;;8.80;96.40;;;;;;5035129;28;20202;-60
2021/03/12 04:06:46;;;;;;;2.33;0.90;;;8.70;96.00;;;;;;5034850;28;20280;-60
2021/03/12 04:09:14;;;;;;;3.70;0.93;;;8.70;96.20;;;;;;5034668;28;20230;-61
2021/03/12 04:11:42;;;;;;;4.47;0.90;;;8.70;96.20;;;;;;5034681;28;20203;-61
2021/03/12 04:14:09;;;;;;;1.57;0.73;;;8.80;95.70;;;;;;5034493;28;20210;-60
2021/03/12 04:16:36;;;;;;;3.47;1.33;;;8.70;96.00;;;;;;5034342;28;20217;-60
2021/03/12 04:19:04;;;;;;;2.97;0.97;;;8.80;95.80;;;;;;5034397;28;20230;-60
2021/03/12 04:21:31;;;;;;;2.07;0.70;;;8.80;95.40;;;;;;5034189;28;20223;-60
2021/03/12 04:23:58;;;;;;;7.23;0.80;;;8.60;95.10;;;;;;5034445;28;20207;-61
2021/03/12 04:26:24;;;;;;;3.43;1.10;;;8.60;94.90;;;;;;5034251;28;20213;-61
2021/03/12 04:28:52;;;;;;;1.70;0.63;;;8.50;94.90;;;;;;5033970;28;20230;-60
2021/03/12 04:31:19;;;;;;;3.10;0.90;;;8.40;94.80;;;;;;5034045;28;20208;-60
2021/03/12 04:33:45;;;;;;;3.43;1.43;;;8.40;94.70;;;;;;5034137;28;20214;-60
2021/03/12 04:36:13;;;;;;;5.50;1.13;;;8.30;94.90;;;;;;5034301;28;20210;-60
2021/03/12 04:38:40;;;;;;;4.50;1.00;;;8.40;94.90;;;;;;5034043;28;20257;-61
2021/03/12 04:41:07;;;;;;;6.43;1.40;;;8.40;94.80;;;;;;5033894;28;20207;-61
2021/03/12 04:43:34;;;;;;;6.40;1.60;;;8.30;94.70;;;;;;5033648;28;20229;-60
2021/03/12 04:46:02;;;;;;;3.93;1.20;;;8.30;94.70;;;;;;5034083;28;20229;-61
2021/03/12 04:48:30;;;;;;;3.20;1.03;;;8.40;94.90;;;;;;5033730;28;20241;-61
2021/03/12 04:50:56;;;;;;;2.47;0.97;;;8.50;94.60;;;;;;5034194;28;20276;-61
2021/03/12 04:53:23;;;;;;;3.77;0.90;;;8.40;93.50;;;;;;5033706;28;20202;-61
2021/03/12 04:55:50;;;;;;;3.13;0.80;;;8.40;93.20;;;;;;5033737;28;20213;-61
2021/03/12 04:58:16;;;;;;;5.83;1.20;;;8.40;93.30;;;;;;5032638;28;20666;-61
2021/03/12 05:00:43;;;;;;;4.80;1.10;;;8.50;93.30;;;;;;5033567;28;20696;-60
2021/03/12 05:03:10;;;;;;;3.17;0.90;;;8.30;92.60;;;;;;5033566;28;20226;-60
2021/03/12 05:05:37;;;;;;;6.07;1.20;;;8.20;92.70;;;;;;5033703;28;20206;-60
2021/03/12 05:08:07;;;;;;;4.90;1.37;;;8.20;93.10;;;;;;5033653;28;20206;-60
2021/03/12 05:10:33;;;;;;;4.47;1.30;;;8.20;93.10;;;;;;5033235;28;20743;-60
2021/03/12 05:13:01;;;;;;;3.13;1.10;;;8.20;93.10;;;;;;5033397;28;20206;-60
2021/03/12 05:15:27;;;;;;;3.33;1.00;;;8.30;93.20;;;;;;5033604;28;20207;-60
2021/03/12 05:17:54;;;;;;;5.37;1.37;;;8.50;93.10;;;;;;5033260;28;20666;-61
2021/03/12 05:20:21;;;;;;;4.77;1.30;;;8.40;93.00;;;;;;5033349;28;20253;-60
2021/03/12 05:22:47;;;;;;;4.43;1.10;;;8.50;93.00;;;;;;5033188;28;20237;-60
2021/03/12 05:25:14;;;;;;;4.67;1.23;;;8.60;92.80;;;;;;5033101;28;20206;-61
2021/03/12 05:27:40;;;;;;;5.00;1.07;;;8.60;92.80;;;;;;5033282;28;20207;-60
2021/03/12 05:30:07;;;;;;;6.40;1.37;;;8.70;92.70;;;;;;5033144;28;20357;-60
2021/03/12 05:32:33;;;;;;;2.77;1.30;;;8.50;92.60;;;;;;5032925;28;20721;-60
2021/03/12 05:35:00;;;;;;;3.27;1.40;;;8.30;92.70;;;;;;5033028;28;20210;-60
2021/03/12 05:37:27;;;;;;;3.67;1.40;;;8.30;92.90;;;;;;5032832;28;20206;-61
2021/03/12 05:39:53;;;;;;;6.20;1.30;;;8.40;92.90;;;;;;5032554;28;20228;-60
2021/03/12 05:42:19;;;;;;;5.23;1.33;;;8.30;92.90;;;;;;5032881;28;20244;-60
2021/03/12 05:44:47;;;;;;;5.73;1.73;;;8.30;93.20;;;;;;5032909;28;20221;-61
2021/03/12 05:47:14;;;;;;;5.37;1.50;;;8.30;93.30;;;;;;5032880;28;20249;-61
2021/03/12 05:49:40;;;;;;;7.87;1.60;;;8.30;93.30;;;;;;5032479;28;20233;-60
2021/03/12 05:52:10;;;;;;;5.23;1.40;;;8.50;93.30;;;;;;5032616;28;20210;-60
2021/03/12 05:54:37;;;;;;;3.80;1.50;;;8.50;93.30;;;;;;5032301;28;20208;-61
2021/03/12 05:57:04;;;;;;;3.90;1.87;;;8.50;93.20;;;;;;5032523;28;20209;-60
2021/03/12 05:59:32;;;;;;;4.67;1.20;;;8.60;93.30;;;;;;5032223;28;20242;-60
2021/03/12 06:01:58;;;;;;;4.23;1.37;;;8.60;93.30;;;;;;5032557;28;20244;-60
2021/03/12 06:04:24;;;;;;;7.17;2.10;;;8.70;93.40;;;;;;5032272;28;20206;-60
2021/03/12 06:06:51;;;;;;;4.63;2.10;;;8.60;93.30;;;;;;5032383;28;20210;-60
2021/03/12 06:09:17;;;;;;;11.80;3.37;;;8.70;93.20;;;;;;5031607;28;20234;-61
2021/03/12 06:11:44;;;;;;;6.13;1.83;;;8.70;93.30;;;;;;5031874;28;20688;-62
2021/03/12 06:14:10;;;;;;;4.97;1.53;;;8.80;93.20;;;;;;5032059;28;20210;-61
2021/03/12 06:16:36;;;;;;;7.77;1.93;;;8.80;93.20;;;;;;5032265;28;20211;-61
2021/03/12 06:19:14;;;;;;;5.80;1.33;;;8.90;93.20;;;;;;5031926;28;20230;-60
2021/03/12 06:21:41;;;;;;;2.10;0.93;;;8.90;93.10;;;;;;5031855;28;20225;-62
2021/03/12 06:24:25;;;;;;;5.30;1.37;;;8.90;93.20;;;;;;5032186;28;20579;-60
2021/03/12 06:26:53;;;;;;;3.43;1.10;;;9.00;93.40;;;;;;5031998;28;20497;-60
2021/03/12 06:29:31;;;;;;;6.07;1.57;;;8.90;93.20;;;;;;5032081;28;20233;-60
2021/03/12 06:31:57;;;;;;;7.20;1.53;;;8.80;93.40;;;;;;5032218;28;20202;-60
2021/03/12 06:34:23;;;;;;;3.30;1.17;;;9.00;93.50;;;;;;5031981;28;20207;-60
2021/03/12 06:36:50;;;;;;;6.70;1.87;;;9.10;93.40;;;;;;5032231;28;20659;-60
2021/03/12 06:39:16;;;;;;;7.73;1.30;;;9.30;93.30;;;;;;5031893;28;20227;-60
2021/03/12 06:41:44;;;;;;;6.17;1.53;;;9.50;93.00;;;;;;5032054;28;20767;-60
2021/03/12 06:44:29;;;;;;;3.77;1.40;;;9.70;92.90;;;;;;5032371;28;20206;-63
2021/03/12 06:46:56;;;;;;;5.37;1.40;;;9.70;92.80;;;;;;5031827;28;20263;-60
2021/03/12 06:49:22;;;;;;;7.37;2.20;;;9.90;92.60;;;;;;5031401;28;20717;-59
2021/03/12 06:51:56;;;;;;;6.40;1.87;;;10.00;92.30;;;;;;5031699;28;20205;-60
2021/03/12 06:54:23;;;;;;;6.30;1.50;;;10.00;92.00;;;;;;5031550;28;20202;-60
2021/03/12 06:56:50;;;;;;;4.10;1.20;;;10.00;92.10;;;;;;5031510;28;20206;-60
2021/03/12 06:59:27;;;;;;;6.63;1.50;;;10.00;92.00;;;;;;5031445;28;20244;-60
2021/03/12 07:01:58;;;;;;;4.33;1.77;;;10.00;92.10;;;;;;5030898;28;20222;-60
2021/03/12 07:04:26;;;;;;;7.33;1.70;;;10.00;92.20;;;;;;5031189;28;20260;-60
2021/03/12 07:06:52;;;;;;;3.07;1.80;;;10.20;92.20;;;;;;5031244;28;20249;-60
2021/03/12 07:09:19;;;;;;;4.97;1.70;;;10.30;92.10;;;;;;5030905;28;20285;-60
2021/03/12 07:11:53;;;;;;;3.50;1.60;;;10.40;92.00;;;;;;5031248;28;20228;-60
2021/03/12 07:14:20;;;;;;;5.03;1.47;;;10.50;91.80;;;;;;5031266;28;20201;-60
2021/03/12 07:16:48;;;;;;;8.23;2.27;;;10.60;91.80;;;;;;5031053;28;20237;-60
2021/03/12 07:19:15;;;;;;;4.63;1.80;;;10.70;91.70;;;;;;5030813;28;20226;-60
2021/03/12 07:21:42;;;;;;;6.77;2.50;;;10.90;91.50;;;;;;5031195;28;20226;-60
2021/03/12 07:24:10;;;;;;;8.13;2.20;;;11.50;90.80;;;;;;5030895;28;20749;-60
2021/03/12 07:26:44;;;;;;;2.80;1.30;;;12.20;90.20;;;;;;5031552;28;20206;-60
2021/03/12 07:29:12;;;;;;;5.80;1.80;;;13.50;85.30;;;;;;5031401;28;20713;-60
2021/03/12 07:31:39;;;;;;;3.90;1.60;;;15.10;82.00;;;;;;5031813;28;20230;-60
2021/03/12 07:34:12;;;;;;;13.00;1.77;;;16.50;78.60;;;;;;5031646;28;20206;-60
2021/03/12 07:36:43;;;;;;;4.50;1.20;;;17.60;74.90;;;;;;5031359;28;20213;-60
2021/03/12 07:39:12;;;;;;;2.37;1.33;;;17.30;73.50;;;;;;5030918;28;20254;-60
2021/03/12 07:41:39;;;;;;;6.07;1.60;;;16.70;74.70;;;;;;5031028;28;20222;-61
2021/03/12 07:44:06;;;;;;;9.97;5.53;;;15.90;76.70;;;;;;5031019;28;20202;-60
2021/03/12 07:46:32;;;;;;;2.80;1.10;;;15.20;78.80;;;;;;5030960;28;20217;-60
2021/03/12 07:48:58;;;;;;;12.93;2.47;;;14.50;81.30;;;;;;5030729;28;20226;-60
2021/03/12 07:51:25;;;;;;;10.10;2.53;;;13.60;84.20;;;;;;5031418;28;20287;-60
2021/03/12 07:53:53;;;;;;;6.07;1.40;;;12.80;86.90;;;;;;5031330;28;20213;-60
2021/03/12 07:56:51;;;;;;;7.20;1.80;;;12.00;90.00;;;;;;5031580;28;20581;-60
2021/03/12 07:59:17;;;;;;;4.13;1.20;;;11.30;91.20;;;;;;5030992;28;20658;-59
2021/03/12 08:01:51;;;;;;;3.17;1.20;;;10.80;92.30;;;;;;5030919;28;20234;-57
2021/03/12 08:04:31;;;;;;;4.33;1.40;;;10.60;93.00;;;;;;5031039;28;20238;-57
2021/03/12 08:06:59;;;;;;;3.67;1.23;;;10.60;93.70;;;;;;5031270;28;20210;-58
2021/03/12 08:09:33;;;;;;;8.93;2.73;;;10.60;93.90;;;;;;5030571;28;20222;-57
2021/03/12 08:12:00;;;;;;;6.13;1.30;;;10.70;93.60;;;;;;5030918;28;20207;-57
2021/03/12 08:14:26;;;;;;;4.87;1.40;;;10.70;93.70;;;;;;5030764;28;20229;-58
2021/03/12 08:17:18;;;;;;;5.90;1.80;;;10.60;94.00;;;;;;5030609;28;20682;-59
2021/03/12 08:19:52;;;;;;;6.20;1.40;;;10.60;94.10;;;;;;5030528;28;20258;-59
2021/03/12 08:22:43;;;;;;;4.63;1.30;;;10.60;94.70;;;;;;5030569;28;20222;-57
2021/03/12 08:25:36;;;;;;;8.90;3.47;;;10.40;95.90;;;;;;5030232;28;20823;-57
2021/03/12 08:28:23;;;;;;;3.53;1.17;;;10.30;97.00;;;;;;5030394;28;20935;-57
2021/03/12 08:30:51;;;;;;;2.67;1.10;;;10.20;97.50;;;;;;5030549;28;20717;-62
2021/03/12 08:33:32;;;;;;;4.50;1.80;;;10.40;97.70;;;;;;5032386;28;20202;-62
2021/03/12 08:35:59;;;;;;;5.30;1.43;;;10.70;97.50;;;;;;5035117;28;20202;-62
2021/03/12 08:38:40;;;;;;;2.83;1.20;;;10.90;96.60;;;;;;5034130;28;20217;-62
2021/03/12 08:41:12;;;;;;;7.27;1.50;;;11.00;96.90;;;;;;5034112;28;20321;-63
2021/03/12 08:43:46;;;;;;;6.20;2.40;;;10.90;97.50;;;;;;5034046;28;20325;-64
2021/03/12 08:46:16;;;;;;;2.33;1.00;;;10.90;97.60;;;;;;5034708;28;20213;-63
2021/03/12 08:48:44;;;;;;;4.60;1.47;;;10.90;97.80;;;;;;5034748;28;20230;-63
2021/03/12 08:51:14;;;;;;;4.93;1.53;;;11.10;97.40;;;;;;5033843;28;20635;-63
2021/03/12 08:53:46;;;;;;;5.50;1.40;;;11.50;97.00;;;;;;5033609;28;20210;-63
2021/03/12 08:56:19;;;;;;;5.77;1.30;;;12.10;96.00;;;;;;5034151;28;20259;-63
2021/03/12 08:58:45;;;;;;;10.83;1.63;;;12.50;94.60;;;;;;5034310;28;20725;-63
2021/03/12 09:01:13;;;;;;;8.57;1.47;;;12.80;94.20;;;;;;5034089;28;20213;-63
2021/03/12 09:03:42;;;;;;;5.23;1.23;;;13.10;93.40;;;;;;5034245;28;20697;-63
2021/03/12 09:06:09;;;;;;;10.13;3.90;;;13.40;92.10;;;;;;5034154;28;20210;-62
2021/03/12 09:08:37;;;;;;;6.17;1.20;;;13.50;91.60;;;;;;5033723;28;20229;-63
2021/03/12 09:11:07;;;;;;;4.83;1.30;;;13.70;91.50;;;;;;5033714;28;20210;-63
2021/03/12 09:13:35;;;;;;;2.87;1.20;;;13.90;90.70;;;;;;5033383;28;20202;-62
2021/03/12 09:16:02;;;;;;;1.90;1.00;;;14.10;90.20;;;;;;5033500;28;20210;-62
2021/03/12 09:18:29;;;;;;;4.23;1.23;;;14.30;89.10;;;;;;5032999;28;20264;-62
2021/03/12 09:20:57;;;;;;;3.83;1.43;;;14.30;87.90;;;;;;5033102;28;20217;-62
2021/03/12 09:23:37;;;;;;;4.03;1.60;;;14.20;89.10;;;;;;5033033;28;20229;-63
2021/03/12 09:26:06;;;;;;;7.23;1.20;;;14.10;88.70;;;;;;5033391;28;20217;-62
2021/03/12 09:28:32;;;;;;;5.70;1.17;;;14.00;89.60;;;;;;5032918;28;20710;-63
2021/03/12 09:31:00;;;;;;;6.63;2.50;;;14.00;88.40;;;;;;5033038;28;20206;-63
2021/03/12 09:33:29;;;;;;;3.30;1.30;;;13.90;89.00;;;;;;5032893;28;20210;-64
2021/03/12 09:35:56;;;;;;;14.80;2.50;;;13.70;88.30;;;;;;5032907;28;20206;-65
2021/03/12 09:38:36;;;;;;;6.47;1.47;;;13.70;88.80;;;;;;5032639;28;20206;-61
2021/03/12 09:41:17;;;;;;;3.67;1.33;;;14.00;88.90;;;;;;5033203;28;20237;-62
2021/03/12 09:43:44;;;;;;;4.93;1.23;;;14.40;87.70;;;;;;5032606;28;20713;-61
2021/03/12 09:46:11;;;;;;;1.70;0.97;;;14.50;87.00;;;;;;5033257;28;20229;-61
2021/03/12 09:48:37;;;;;;;5.07;1.47;;;14.40;87.10;;;;;;5032937;28;20289;-61
2021/03/12 09:51:04;;;;;;;3.23;1.17;;;14.10;87.70;;;;;;5032892;28;20210;-61
2021/03/12 09:53:30;;;;;;;6.13;1.57;;;13.90;89.10;;;;;;5032650;28;20202;-60
2021/03/12 09:55:57;;;;;;;5.13;1.23;;;13.70;90.00;;;;;;5032677;28;20229;-61
2021/03/12 09:58:24;;;;;;;7.63;1.83;;;13.40;88.90;;;;;;5032409;28;20725;-61
2021/03/12 10:00:50;;;;;;;4.80;1.73;;;13.30;89.80;;;;;;5032757;28;20206;-60
2021/03/12 10:03:17;;;;;;;7.13;2.40;;;13.40;89.90;;;;;;5032837;28;20226;-60
2021/03/12 10:05:43;;;;;;;4.90;1.97;;;13.40;90.10;;;;;;5032550;28;20309;-62
2021/03/12 10:08:09;;;;;;;7.70;1.67;;;13.60;90.30;;;;;;5032298;28;20571;-61
2021/03/12 10:10:36;;;;;;;5.13;1.50;;;13.80;89.60;;;;;;5032206;28;20611;-61
2021/03/12 10:13:05;;;;;;;4.57;1.30;;;13.90;87.10;;;;;;5032064;28;20202;-61
2021/03/12 10:15:34;;;;;;;4.83;1.20;;;14.00;85.80;;;;;;5032596;28;20297;-62
2021/03/12 10:18:00;;;;;;;4.40;1.20;;;14.10;86.70;;;;;;5032314;28;20218;-61
2021/03/12 10:20:29;;;;;;;2.47;1.33;;;14.20;85.80;;;;;;5032374;28;20628;-61
2021/03/12 10:22:59;;;;;;;7.27;1.93;;;14.30;86.00;;;;;;5032325;28;20272;-61
2021/03/12 10:25:27;;;;;;;4.27;1.30;;;14.30;84.80;;;;;;5031968;28;20257;-61
2021/03/12 10:27:55;;;;;;;4.60;1.63;;;14.40;85.20;;;;;;5032677;28;20556;-63
2021/03/12 10:30:24;;;;;;;5.63;1.60;;;14.40;85.20;;;;;;5032060;28;20710;-61
2021/03/12 10:32:53;;;;;;;26.33;15.97;;;14.40;84.70;;;;;;5032494;28;20209;-62
2021/03/12 10:35:31;;;;;;;5.67;1.50;;;14.30;83.70;;;;;;5032331;28;20575;-62
2021/03/12 10:37:59;;;;;;;5.17;1.40;;;14.20;84.70;;;;;;5032818;28;20194;-61
2021/03/12 10:40:27;;;;;;;3.70;1.47;;;14.10;84.00;;;;;;5032552;28;20710;-62
2021/03/12 10:42:55;;;;;;;2.40;0.87;;;13.90;84.70;;;;;;5032557;28;20234;-62
2021/03/12 10:45:32;;;;;;;5.00;1.40;;;13.80;83.70;;;;;;5032675;28;20262;-62
2021/03/12 10:48:04;;;;;;;4.17;1.13;;;13.90;84.30;;;;;;5032727;28;20248;-62
2021/03/12 10:50:34;;;;;;;5.50;1.50;;;14.00;83.60;;;;;;5032696;28;20303;-62
2021/03/12 10:53:05;;;;;;;9.43;1.40;;;14.10;83.10;;;;;;5032407;28;20694;-63
2021/03/12 10:55:33;;;;;;;5.50;1.27;;;14.40;81.90;;;;;;5031372;28;20682;-63
2021/03/12 10:58:00;;;;;;;4.97;1.67;;;14.60;80.90;;;;;;5031954;28;20210;-63
2021/03/12 11:00:27;;;;;;;4.97;1.97;;;14.60;80.90;;;;;;5032189;28;20713;-63
2021/03/12 11:02:57;;;;;;;3.63;1.40;;;14.50;83.20;;;;;;5031887;28;20268;-63
2021/03/12 11:05:24;;;;;;;3.40;1.40;;;14.30;83.70;;;;;;5031612;28;20252;-63
2021/03/12 11:07:51;;;;;;;4.07;1.30;;;13.90;84.30;;;;;;5031738;28;20210;-63
2021/03/12 11:10:18;;;;;;;5.13;1.73;;;13.70;85.50;;;;;;5031617;28;20268;-63
2021/03/12 11:12:46;;;;;;;2.27;1.00;;;13.70;86.30;;;;;;5031756;28;20203;-63
2021/03/12 11:15:14;;;;;;;2.27;0.77;;;13.70;84.20;;;;;;5031669;28;20214;-63
2021/03/12 11:17:45;;;;;;;3.00;0.70;;;13.70;84.40;;;;;;5031749;28;20206;-62
2021/03/12 11:20:16;;;;;;;2.60;0.73;;;13.70;82.90;;;;;;5031346;28;20672;-63
2021/03/12 11:22:43;;;;;;;2.70;0.57;;;13.70;81.60;;;;;;5031497;28;20226;-62
2021/03/12 11:25:10;;;;;;;2.67;0.60;;;13.80;80.10;;;;;;5031442;28;20233;-63
2021/03/12 11:27:37;;;;;;;4.03;1.07;;;13.90;79.00;;;;;;5032180;28;20748;-63
2021/03/12 11:30:06;;;;;;;2.03;0.73;;;14.10;79.70;;;;;;5031228;28;20229;-63
2021/03/12 11:32:32;;;;;;;3.33;0.87;;;14.10;82.10;;;;;;5031389;28;20202;-63
2021/03/12 11:34:59;;;;;;;3.27;0.50;;;14.40;84.10;;;;;;5031299;28;20213;-62
2021/03/12 11:37:26;;;;;;;3.83;1.47;;;14.60;79.60;;;;;;5031383;28;20296;-61
2021/03/12 11:39:54;;;;;;;2.27;0.87;;;14.70;76.50;;;;;;5031421;28;20237;-63
2021/03/12 11:42:20;;;;;;;3.87;0.80;;;14.80;76.30;;;;;;5031256;28;20222;-59
2021/03/12 11:44:46;;;;;;;3.00;1.00;;;15.20;73.80;;;;;;5044786;28;20224;-60
2021/03/12 11:47:13;;;;;;;4.00;1.00;;;15.10;73.80;;;;;;5050942;28;20217;-62
2021/03/12 11:49:39;;;;;;;2.00;0.83;;;15.20;73.60;;;;;;5050775;28;20226;-63
2021/03/12 11:52:07;;;;;;;3.40;1.10;;;15.20;72.20;;;;;;5050929;28;20680;-63
2021/03/12 11:54:33;;;;;;;2.70;0.97;;;15.30;71.80;;;;;;5036547;28;20238;-65
2021/03/12 11:57:00;;;;;;;3.63;1.00;;;15.20;72.90;;;;;;5030785;28;20819;-63
2021/03/12 11:59:28;;;;;;;2.93;0.50;;;15.30;70.50;;;;;;5030712;28;20241;-64
2021/03/12 12:01:56;;;;;;;4.30;0.90;;;15.30;71.20;;;;;;5030065;28;20222;-63
2021/03/12 12:04:23;;;;;;;5.17;1.20;;;15.30;71.90;;;;;;5030640;28;20246;-64
2021/03/12 12:06:49;;;;;;;2.50;0.97;;;15.30;70.40;;;;;;5030978;28;20218;-65
2021/03/12 12:09:16;;;;;;;2.37;0.90;;;15.20;70.30;;;;;;5033378;28;20226;-65
2021/03/12 12:11:42;;;;;;;3.83;0.83;;;14.90;67.80;;;;;;5034579;28;20210;-65
2021/03/12 12:14:09;;;;;;;2.13;0.60;;;14.70;67.30;;;;;;5034734;28;20206;-63
2021/03/12 12:16:35;;;;;;;3.60;0.80;;;14.40;66.20;;;;;;5034988;28;20202;-62
2021/03/12 12:19:08;;;;;;;3.73;1.00;;;14.30;66.50;;;;;;5034165;28;20649;-62
2021/03/12 12:21:34;;;;;;;3.40;0.90;;;14.20;69.30;;;;;;5034530;28;20565;-61
2021/03/12 12:24:00;;;;;;;3.00;0.80;;;14.00;69.30;;;;;;5034356;28;20226;-63
2021/03/12 12:26:27;;;;;;;1.70;1.03;;;14.10;69.20;;;;;;5034479;28;20202;-63
2021/03/12 12:28:53;;;;;;;2.77;1.03;;;13.90;69.00;;;;;;5034400;28;20234;-61
2021/03/12 12:31:20;;;;;;;3.03;1.10;;;14.10;69.50;;;;;;5035475;28;20206;-64
2021/03/12 12:33:46;;;;;;;1.70;0.73;;;14.10;69.20;;;;;;5034760;28;20202;-64
2021/03/12 12:36:12;;;;;;;6.88;1.80;;;13.90;69.40;;;;;;5034255;28;20448;-63
2021/03/12 12:38:39;;;;;;;3.03;1.30;;;13.80;69.50;;;;;;5053946;28;20233;-63
2021/03/12 12:41:05;;;;;;;33.77;29.80;;;13.50;68.80;;;;;;5054785;28;20213;-62
2021/03/12 12:43:32;;;;;;;3.33;1.40;;;13.50;70.00;;;;;;5053815;28;20735;-62
2021/03/12 12:45:58;;;;;;;6.17;1.30;;;13.70;70.40;;;;;;5053931;28;20206;-63
2021/03/12 12:48:25;;;;;;;3.07;1.13;;;13.70;70.10;;;;;;5054702;28;20232;-63
2021/03/12 12:50:51;;;;;;;3.00;1.10;;;13.60;69.60;;;;;;5054334;28;20674;-63
2021/03/12 12:53:18;;;;;;;4.23;1.60;;;13.60;72.50;;;;;;5053389;28;20202;-63
2021/03/12 12:55:44;;;;;;;7.87;3.90;;;13.80;76.00;;;;;;5053633;28;20673;-59
2021/03/12 12:58:10;;;;;;;3.63;1.20;;;13.90;75.80;;;;;;5053819;28;20210;-60